RoSS Sea — WDE3122 — position and weather

sailwx.info

Track history (hours):
 
Tides and Currents Weather Stations Pressure Air Temp Water Temp Dewpoint Dewpoint Depression Visibility Wind Speed Wind Dir Waves Ship Positions

RoSS Sea

More information available from US FCC via Universal Licensing System and Coast Guard Vessel Documentation Center.

Last reported at 2014-Jul-26 15:33 UTC. Time now 2014-Jul-28 22:30 UTC.
Position N 26°58' W 079°54'.

Length 30 m; draft 5 m.

Type: Tow > 200 m length. MMSI: 367334360.

Date/timePositionNaut miles runAvg speedWind from/ knotsBaromVisibWave heightAir tempDewpointWater temp
2014-Jul-26 15:33N 26°58' W 079°54'10 9.5
2014-Jul-26 14:33N 26°49' W 079°57'5 5.0
2014-Jul-26 13:32N 26°46' W 080°02'3 0.2
2014-Jul-25 18:06N 26°49' W 079°59'1 1.6
2014-Jul-25 17:32N 26°49' W 079°58'17 8.6
2014-Jul-25 15:33N 26°32' W 079°57'1010.3
2014-Jul-25 14:33N 26°22' W 079°56'1110.7
2014-Jul-25 13:33N 26°11' W 079°54'1110.9
2014-Jul-25 12:33N 26°01' W 079°53'1110.9
2014-Jul-25 11:33N 25°50' W 079°52'  
2014-Jul-19 07:15N 30°08' W 090°56'5 6.4
2014-Jul-19 06:32N 30°08' W 091°02'6 6.3
2014-Jul-19 05:33N 30°12' W 091°06'16 0.4
2014-Jul-17 14:04N 30°03' W 090°50'2 3.1
2014-Jul-17 13:22N 30°01' W 090°50'19 5.7
2014-Jul-17 10:04N 30°02' W 090°28'19 5.1
2014-Jul-17 06:27N 29°56' W 090°08'  
Track history (hours):
 
Tides and Currents Weather Stations Pressure Air Temp Water Temp Dewpoint Dewpoint Depression Visibility Wind Speed Wind Dir Waves Ship Positions

RoSS Sea

More information available from US FCC via Universal Licensing System and Coast Guard Vessel Documentation Center.

Last reported at 2014-Jul-26 15:33 UTC. Time now 2014-Jul-28 22:30 UTC.
Position N 26°58' W 079°54'.

Length 30 m; draft 5 m.

Type: Tow > 200 m length. MMSI: 367334360.

Date/timePositionNaut miles runAvg speedWind from/ knotsBaromVisibWave heightAir tempDewpointWater temp
2014-Jul-26 15:33N 26°58' W 079°54'10 9.5
2014-Jul-26 14:33N 26°49' W 079°57'5 5.0
2014-Jul-26 13:32N 26°46' W 080°02'3 0.2
2014-Jul-25 18:06N 26°49' W 079°59'1 1.6
2014-Jul-25 17:32N 26°49' W 079°58'17 8.6
2014-Jul-25 15:33N 26°32' W 079°57'1010.3
2014-Jul-25 14:33N 26°22' W 079°56'1110.7
2014-Jul-25 13:33N 26°11' W 079°54'1110.9
2014-Jul-25 12:33N 26°01' W 079°53'1110.9
2014-Jul-25 11:33N 25°50' W 079°52'  
2014-Jul-19 07:15N 30°08' W 090°56'5 6.4
2014-Jul-19 06:32N 30°08' W 091°02'6 6.3
2014-Jul-19 05:33N 30°12' W 091°06'16 0.4
2014-Jul-17 14:04N 30°03' W 090°50'2 3.1
2014-Jul-17 13:22N 30°01' W 090°50'19 5.7
2014-Jul-17 10:04N 30°02' W 090°28'19 5.1
2014-Jul-17 06:27N 29°56' W 090°08'  

Dump ship's entire track history